sensor_id;sensor_type;location;lat;lon;timestamp;temperature;humidity
7648;DHT22;3866;48.020;11.720;2024-03-22T00:00:57;5.80;99.90
7648;DHT22;3866;48.020;11.720;2024-03-22T00:03:24;5.80;99.90
7648;DHT22;3866;48.020;11.720;2024-03-22T00:05:51;5.80;99.90
7648;DHT22;3866;48.020;11.720;2024-03-22T00:08:17;5.80;99.90
7648;DHT22;3866;48.020;11.720;2024-03-22T00:10:44;5.70;99.90
7648;DHT22;3866;48.020;11.720;2024-03-22T00:13:09;5.80;99.90
7648;DHT22;3866;48.020;11.720;2024-03-22T00:15:36;5.80;99.90
7648;DHT22;3866;48.020;11.720;2024-03-22T00:18:03;5.80;99.90
7648;DHT22;3866;48.020;11.720;2024-03-22T00:20:31;5.80;99.90
7648;DHT22;3866;48.020;11.720;2024-03-22T00:22:57;5.80;99.90
7648;DHT22;3866;48.020;11.720;2024-03-22T00:25:23;5.80;99.90
7648;DHT22;3866;48.020;11.720;2024-03-22T00:27:54;5.70;99.90
7648;DHT22;3866;48.020;11.720;2024-03-22T00:30:20;5.80;99.90
7648;DHT22;3866;48.020;11.720;2024-03-22T00:32:46;5.70;99.90
7648;DHT22;3866;48.020;11.720;2024-03-22T00:35:13;5.70;99.90
7648;DHT22;3866;48.020;11.720;2024-03-22T00:37:40;5.60;99.90
7648;DHT22;3866;48.020;11.720;2024-03-22T00:40:08;5.60;99.90
7648;DHT22;3866;48.020;11.720;2024-03-22T00:42:34;5.60;99.90
7648;DHT22;3866;48.020;11.720;2024-03-22T00:45:01;5.60;99.90
7648;DHT22;3866;48.020;11.720;2024-03-22T00:47:27;5.60;99.90
7648;DHT22;3866;48.020;11.720;2024-03-22T00:49:53;5.60;99.90
7648;DHT22;3866;48.020;11.720;2024-03-22T00:52:19;5.50;99.90
7648;DHT22;3866;48.020;11.720;2024-03-22T00:54:48;5.50;99.90
7648;DHT22;3866;48.020;11.720;2024-03-22T00:57:14;5.50;99.90
7648;DHT22;3866;48.020;11.720;2024-03-22T00:59:40;5.50;99.90
7648;DHT22;3866;48.020;11.720;2024-03-22T01:02:06;5.50;99.90
7648;DHT22;3866;48.020;11.720;2024-03-22T01:04:33;5.40;99.90
7648;DHT22;3866;48.020;11.720;2024-03-22T01:06:59;5.40;99.90
7648;DHT22;3866;48.020;11.720;2024-03-22T01:09:26;5.30;99.90
7648;DHT22;3866;48.020;11.720;2024-03-22T01:11:53;5.20;99.90
7648;DHT22;3866;48.020;11.720;2024-03-22T01:14:21;5.30;99.90
7648;DHT22;3866;48.020;11.720;2024-03-22T01:16:46;5.20;99.90
7648;DHT22;3866;48.020;11.720;2024-03-22T01:19:13;5.10;99.90
7648;DHT22;3866;48.020;11.720;2024-03-22T01:21:39;5.00;99.90
7648;DHT22;3866;48.020;11.720;2024-03-22T01:24:06;5.10;99.90
7648;DHT22;3866;48.020;11.720;2024-03-22T01:26:32;5.00;99.90
7648;DHT22;3866;48.020;11.720;2024-03-22T01:29:00;5.10;99.90
7648;DHT22;3866;48.020;11.720;2024-03-22T01:31:26;5.10;99.90
7648;DHT22;3866;48.020;11.720;2024-03-22T01:33:53;5.10;99.90
7648;DHT22;3866;48.020;11.720;2024-03-22T01:36:19;5.10;99.90
7648;DHT22;3866;48.020;11.720;2024-03-22T01:38:45;5.10;99.90
7648;DHT22;3866;48.020;11.720;2024-03-22T01:41:11;5.10;99.90
7648;DHT22;3866;48.020;11.720;2024-03-22T01:43:38;5.10;99.90
7648;DHT22;3866;48.020;11.720;2024-03-22T01:46:07;5.10;99.90
7648;DHT22;3866;48.020;11.720;2024-03-22T01:48:34;5.20;99.90
7648;DHT22;3866;48.020;11.720;2024-03-22T01:51:01;5.10;99.90
7648;DHT22;3866;48.020;11.720;2024-03-22T01:53:28;5.20;99.90
7648;DHT22;3866;48.020;11.720;2024-03-22T01:55:54;5.20;99.90
7648;DHT22;3866;48.020;11.720;2024-03-22T01:58:21;5.20;99.90
7648;DHT22;3866;48.020;11.720;2024-03-22T02:00:47;5.20;99.90
7648;DHT22;3866;48.020;11.720;2024-03-22T02:03:16;5.20;99.90
7648;DHT22;3866;48.020;11.720;2024-03-22T02:05:41;5.30;99.90
7648;DHT22;3866;48.020;11.720;2024-03-22T02:08:08;5.20;99.90
7648;DHT22;3866;48.020;11.720;2024-03-22T02:10:35;5.20;99.90
7648;DHT22;3866;48.020;11.720;2024-03-22T02:13:02;5.10;99.90
7648;DHT22;3866;48.020;11.720;2024-03-22T02:15:28;5.20;99.90
7648;DHT22;3866;48.020;11.720;2024-03-22T02:17:55;5.20;99.90
7648;DHT22;3866;48.020;11.720;2024-03-22T02:20:22;5.10;99.90
7648;DHT22;3866;48.020;11.720;2024-03-22T02:22:49;5.10;99.90
7648;DHT22;3866;48.020;11.720;2024-03-22T02:25:16;4.90;99.90
7648;DHT22;3866;48.020;11.720;2024-03-22T02:27:43;4.80;99.90
7648;DHT22;3866;48.020;11.720;2024-03-22T02:30:09;4.60;99.90
7648;DHT22;3866;48.020;11.720;2024-03-22T02:32:36;4.50;99.90
7648;DHT22;3866;48.020;11.720;2024-03-22T02:35:03;4.30;99.90
7648;DHT22;3866;48.020;11.720;2024-03-22T02:37:30;4.30;99.90
7648;DHT22;3866;48.020;11.720;2024-03-22T02:39:57;4.20;99.90
7648;DHT22;3866;48.020;11.720;2024-03-22T02:42:25;4.20;99.90
7648;DHT22;3866;48.020;11.720;2024-03-22T02:44:51;4.10;99.90
7648;DHT22;3866;48.020;11.720;2024-03-22T02:47:18;4.10;99.90
7648;DHT22;3866;48.020;11.720;2024-03-22T02:49:44;4.00;99.90
7648;DHT22;3866;48.020;11.720;2024-03-22T02:52:13;4.00;99.90
7648;DHT22;3866;48.020;11.720;2024-03-22T02:54:39;4.00;99.90
7648;DHT22;3866;48.020;11.720;2024-03-22T02:57:11;3.90;99.90
7648;DHT22;3866;48.020;11.720;2024-03-22T02:59:38;3.90;99.90
7648;DHT22;3866;48.020;11.720;2024-03-22T03:02:05;3.90;99.90
7648;DHT22;3866;48.020;11.720;2024-03-22T03:04:31;3.90;99.90
7648;DHT22;3866;48.020;11.720;2024-03-22T03:06:59;3.90;99.90
7648;DHT22;3866;48.020;11.720;2024-03-22T03:09:25;4.00;99.90
7648;DHT22;3866;48.020;11.720;2024-03-22T03:11:52;4.00;99.90
7648;DHT22;3866;48.020;11.720;2024-03-22T03:14:18;3.90;99.90
7648;DHT22;3866;48.020;11.720;2024-03-22T03:16:46;3.90;99.90
7648;DHT22;3866;48.020;11.720;2024-03-22T03:19:12;3.90;99.90
7648;DHT22;3866;48.020;11.720;2024-03-22T03:21:38;3.80;99.90
7648;DHT22;3866;48.020;11.720;2024-03-22T03:24:05;3.80;99.90
7648;DHT22;3866;48.020;11.720;2024-03-22T03:26:32;3.70;99.90
7648;DHT22;3866;48.020;11.720;2024-03-22T03:28:58;3.60;99.90
7648;DHT22;3866;48.020;11.720;2024-03-22T03:31:24;3.50;99.90
7648;DHT22;3866;48.020;11.720;2024-03-22T03:33:55;3.40;99.90
7648;DHT22;3866;48.020;11.720;2024-03-22T03:36:21;3.30;99.90
7648;DHT22;3866;48.020;11.720;2024-03-22T03:38:47;3.30;99.90
7648;DHT22;3866;48.020;11.720;2024-03-22T03:41:14;3.30;99.90
7648;DHT22;3866;48.020;11.720;2024-03-22T03:43:40;3.40;99.90
7648;DHT22;3866;48.020;11.720;2024-03-22T03:46:07;3.40;99.90
7648;DHT22;3866;48.020;11.720;2024-03-22T03:48:33;3.40;99.90
7648;DHT22;3866;48.020;11.720;2024-03-22T03:51:01;3.40;99.90
7648;DHT22;3866;48.020;11.720;2024-03-22T03:53:28;3.40;99.90
7648;DHT22;3866;48.020;11.720;2024-03-22T03:55:55;3.40;99.90
7648;DHT22;3866;48.020;11.720;2024-03-22T03:58:21;3.40;99.90
7648;DHT22;3866;48.020;11.720;2024-03-22T04:00:48;3.30;99.90
7648;DHT22;3866;48.020;11.720;2024-03-22T04:03:14;3.30;99.90
7648;DHT22;3866;48.020;11.720;2024-03-22T04:05:41;3.30;99.90
7648;DHT22;3866;48.020;11.720;2024-03-22T04:08:08;3.20;99.90
7648;DHT22;3866;48.020;11.720;2024-03-22T04:10:51;3.20;99.90
7648;DHT22;3866;48.020;11.720;2024-03-22T04:13:17;3.20;99.90
7648;DHT22;3866;48.020;11.720;2024-03-22T04:15:44;3.10;99.90
7648;DHT22;3866;48.020;11.720;2024-03-22T04:18:10;3.20;99.90
7648;DHT22;3866;48.020;11.720;2024-03-22T04:20:37;3.10;99.90
7648;DHT22;3866;48.020;11.720;2024-03-22T04:23:03;3.10;99.90
7648;DHT22;3866;48.020;11.720;2024-03-22T04:25:31;3.10;99.90
7648;DHT22;3866;48.020;11.720;2024-03-22T04:27:57;3.10;99.90
7648;DHT22;3866;48.020;11.720;2024-03-22T04:30:24;3.10;99.90
7648;DHT22;3866;48.020;11.720;2024-03-22T04:32:50;3.20;99.90
7648;DHT22;3866;48.020;11.720;2024-03-22T04:35:17;3.20;99.90
7648;DHT22;3866;48.020;11.720;2024-03-22T04:37:43;3.10;99.90
7648;DHT22;3866;48.020;11.720;2024-03-22T04:40:11;3.10;99.90
7648;DHT22;3866;48.020;11.720;2024-03-22T04:42:43;3.10;99.90
7648;DHT22;3866;48.020;11.720;2024-03-22T04:45:10;3.10;99.90
7648;DHT22;3866;48.020;11.720;2024-03-22T04:47:37;3.10;99.90
7648;DHT22;3866;48.020;11.720;2024-03-22T04:50:04;3.20;99.90
7648;DHT22;3866;48.020;11.720;2024-03-22T04:52:31;3.40;99.90
7648;DHT22;3866;48.020;11.720;2024-03-22T04:54:58;3.60;99.90
7648;DHT22;3866;48.020;11.720;2024-03-22T04:57:24;3.60;99.90
7648;DHT22;3866;48.020;11.720;2024-03-22T04:59:52;3.70;99.90
7648;DHT22;3866;48.020;11.720;2024-03-22T05:02:18;4.00;99.90
7648;DHT22;3866;48.020;11.720;2024-03-22T05:04:45;4.10;99.90
7648;DHT22;3866;48.020;11.720;2024-03-22T05:07:10;4.20;99.90
7648;DHT22;3866;48.020;11.720;2024-03-22T05:09:37;4.30;99.90
7648;DHT22;3866;48.020;11.720;2024-03-22T05:12:04;4.40;99.90
7648;DHT22;3866;48.020;11.720;2024-03-22T05:14:31;4.40;99.90
7648;DHT22;3866;48.020;11.720;2024-03-22T05:16:58;4.40;99.90
7648;DHT22;3866;48.020;11.720;2024-03-22T05:19:25;4.50;99.90
7648;DHT22;3866;48.020;11.720;2024-03-22T05:21:51;4.50;99.90
7648;DHT22;3866;48.020;11.720;2024-03-22T05:24:19;4.50;99.90
7648;DHT22;3866;48.020;11.720;2024-03-22T05:26:49;4.50;99.90
7648;DHT22;3866;48.020;11.720;2024-03-22T05:29:15;4.60;99.90
7648;DHT22;3866;48.020;11.720;2024-03-22T05:31:47;4.60;99.90
7648;DHT22;3866;48.020;11.720;2024-03-22T05:34:15;4.70;99.90
7648;DHT22;3866;48.020;11.720;2024-03-22T05:36:41;4.70;99.90
7648;DHT22;3866;48.020;11.720;2024-03-22T05:39:08;4.80;99.90
7648;DHT22;3866;48.020;11.720;2024-03-22T05:41:36;4.80;99.90
7648;DHT22;3866;48.020;11.720;2024-03-22T05:44:03;4.90;99.90
7648;DHT22;3866;48.020;11.720;2024-03-22T05:46:28;5.10;99.90
7648;DHT22;3866;48.020;11.720;2024-03-22T05:48:56;5.10;99.90
7648;DHT22;3866;48.020;11.720;2024-03-22T05:51:24;5.20;99.90
7648;DHT22;3866;48.020;11.720;2024-03-22T05:53:50;5.30;99.90
7648;DHT22;3866;48.020;11.720;2024-03-22T05:56:16;5.30;99.90
7648;DHT22;3866;48.020;11.720;2024-03-22T05:58:43;5.40;99.90
7648;DHT22;3866;48.020;11.720;2024-03-22T06:01:09;5.40;99.90
7648;DHT22;3866;48.020;11.720;2024-03-22T06:03:36;5.50;99.90
7648;DHT22;3866;48.020;11.720;2024-03-22T06:06:02;5.50;99.90
7648;DHT22;3866;48.020;11.720;2024-03-22T06:08:30;5.60;99.90
7648;DHT22;3866;48.020;11.720;2024-03-22T06:10:57;5.60;99.90
7648;DHT22;3866;48.020;11.720;2024-03-22T06:13:24;5.60;99.90
7648;DHT22;3866;48.020;11.720;2024-03-22T06:15:50;5.70;99.90
7648;DHT22;3866;48.020;11.720;2024-03-22T06:18:17;5.70;99.90
7648;DHT22;3866;48.020;11.720;2024-03-22T06:20:43;5.80;99.90
7648;DHT22;3866;48.020;11.720;2024-03-22T06:23:10;5.90;99.90
7648;DHT22;3866;48.020;11.720;2024-03-22T06:25:37;6.00;99.90
7648;DHT22;3866;48.020;11.720;2024-03-22T06:28:05;6.00;99.90
7648;DHT22;3866;48.020;11.720;2024-03-22T06:30:30;6.00;99.90
7648;DHT22;3866;48.020;11.720;2024-03-22T06:32:57;6.10;99.90
7648;DHT22;3866;48.020;11.720;2024-03-22T06:35:23;6.10;99.90
7648;DHT22;3866;48.020;11.720;2024-03-22T06:37:50;6.20;99.90
7648;DHT22;3866;48.020;11.720;2024-03-22T06:40:16;6.30;99.90
7648;DHT22;3866;48.020;11.720;2024-03-22T06:42:44;6.30;99.90
7648;DHT22;3866;48.020;11.720;2024-03-22T06:45:10;6.40;99.90
7648;DHT22;3866;48.020;11.720;2024-03-22T06:47:37;6.50;99.90
7648;DHT22;3866;48.020;11.720;2024-03-22T06:50:03;6.60;99.90
7648;DHT22;3866;48.020;11.720;2024-03-22T06:52:30;6.60;99.90
7648;DHT22;3866;48.020;11.720;2024-03-22T06:54:56;6.60;99.90
7648;DHT22;3866;48.020;11.720;2024-03-22T06:57:23;6.80;99.90
7648;DHT22;3866;48.020;11.720;2024-03-22T06:59:50;7.00;99.90
7648;DHT22;3866;48.020;11.720;2024-03-22T07:02:17;7.20;99.90
7648;DHT22;3866;48.020;11.720;2024-03-22T07:04:44;7.90;99.90
7648;DHT22;3866;48.020;11.720;2024-03-22T07:07:11;8.40;99.90
7648;DHT22;3866;48.020;11.720;2024-03-22T07:09:37;9.10;99.90
7648;DHT22;3866;48.020;11.720;2024-03-22T07:12:04;9.30;99.90
7648;DHT22;3866;48.020;11.720;2024-03-22T07:14:30;9.60;99.90
7648;DHT22;3866;48.020;11.720;2024-03-22T07:16:58;9.90;99.90
7648;DHT22;3866;48.020;11.720;2024-03-22T07:19:27;9.80;99.90
7648;DHT22;3866;48.020;11.720;2024-03-22T07:21:54;10.00;99.90
7648;DHT22;3866;48.020;11.720;2024-03-22T07:24:20;10.60;99.90
7648;DHT22;3866;48.020;11.720;2024-03-22T07:26:49;11.10;99.90
7648;DHT22;3866;48.020;11.720;2024-03-22T07:29:15;10.90;99.90
7648;DHT22;3866;48.020;11.720;2024-03-22T07:31:42;11.10;99.90
7648;DHT22;3866;48.020;11.720;2024-03-22T07:34:09;11.20;99.90
7648;DHT22;3866;48.020;11.720;2024-03-22T07:36:37;12.80;99.90
7648;DHT22;3866;48.020;11.720;2024-03-22T07:39:03;12.70;99.90
7648;DHT22;3866;48.020;11.720;2024-03-22T07:41:31;12.30;99.90
7648;DHT22;3866;48.020;11.720;2024-03-22T07:43:59;12.50;99.90
7648;DHT22;3866;48.020;11.720;2024-03-22T07:46:26;13.10;99.90
7648;DHT22;3866;48.020;11.720;2024-03-22T07:48:52;13.60;99.90
7648;DHT22;3866;48.020;11.720;2024-03-22T07:51:21;13.00;99.90
7648;DHT22;3866;48.020;11.720;2024-03-22T07:53:47;12.10;99.90
7648;DHT22;3866;48.020;11.720;2024-03-22T07:56:13;12.10;99.90
7648;DHT22;3866;48.020;11.720;2024-03-22T07:58:41;12.20;99.90
7648;DHT22;3866;48.020;11.720;2024-03-22T08:01:09;12.10;99.90
7648;DHT22;3866;48.020;11.720;2024-03-22T08:03:35;11.80;99.90
7648;DHT22;3866;48.020;11.720;2024-03-22T08:06:02;11.90;99.90
7648;DHT22;3866;48.020;11.720;2024-03-22T08:08:29;11.50;99.90
7648;DHT22;3866;48.020;11.720;2024-03-22T08:10:56;11.20;99.90
7648;DHT22;3866;48.020;11.720;2024-03-22T08:13:22;11.10;99.90
7648;DHT22;3866;48.020;11.720;2024-03-22T08:15:49;11.30;99.90
7648;DHT22;3866;48.020;11.720;2024-03-22T08:18:15;11.30;99.90
7648;DHT22;3866;48.020;11.720;2024-03-22T08:20:42;11.20;99.90
7648;DHT22;3866;48.020;11.720;2024-03-22T08:23:09;11.30;99.90
7648;DHT22;3866;48.020;11.720;2024-03-22T08:25:36;11.30;99.90
7648;DHT22;3866;48.020;11.720;2024-03-22T08:28:04;11.30;99.90
7648;DHT22;3866;48.020;11.720;2024-03-22T08:30:29;11.50;99.90
7648;DHT22;3866;48.020;11.720;2024-03-22T08:32:56;11.80;99.90
7648;DHT22;3866;48.020;11.720;2024-03-22T08:35:22;12.40;99.90
7648;DHT22;3866;48.020;11.720;2024-03-22T08:37:49;12.90;99.90
7648;DHT22;3866;48.020;11.720;2024-03-22T08:40:15;13.10;99.90
7648;DHT22;3866;48.020;11.720;2024-03-22T08:42:43;13.20;99.90
7648;DHT22;3866;48.020;11.720;2024-03-22T08:45:09;13.40;99.90
7648;DHT22;3866;48.020;11.720;2024-03-22T08:47:36;13.80;99.90
7648;DHT22;3866;48.020;11.720;2024-03-22T08:50:02;14.10;99.90
7648;DHT22;3866;48.020;11.720;2024-03-22T08:52:30;14.30;99.90
7648;DHT22;3866;48.020;11.720;2024-03-22T08:54:57;14.50;99.90
7648;DHT22;3866;48.020;11.720;2024-03-22T08:57:24;14.50;99.90
7648;DHT22;3866;48.020;11.720;2024-03-22T08:59:51;14.70;99.90
7648;DHT22;3866;48.020;11.720;2024-03-22T09:02:18;15.10;99.90
7648;DHT22;3866;48.020;11.720;2024-03-22T09:04:44;14.80;99.90
7648;DHT22;3866;48.020;11.720;2024-03-22T09:07:12;15.70;99.90
7648;DHT22;3866;48.020;11.720;2024-03-22T09:09:38;16.00;99.90
7648;DHT22;3866;48.020;11.720;2024-03-22T09:12:06;16.40;99.90
7648;DHT22;3866;48.020;11.720;2024-03-22T09:14:32;15.90;99.90
7648;DHT22;3866;48.020;11.720;2024-03-22T09:17:00;15.50;99.90
7648;DHT22;3866;48.020;11.720;2024-03-22T09:19:26;15.40;99.90
7648;DHT22;3866;48.020;11.720;2024-03-22T09:21:53;15.50;99.90
7648;DHT22;3866;48.020;11.720;2024-03-22T09:24:18;15.50;99.90
7648;DHT22;3866;48.020;11.720;2024-03-22T09:26:45;15.30;99.90
7648;DHT22;3866;48.020;11.720;2024-03-22T09:29:13;15.90;99.90
7648;DHT22;3866;48.020;11.720;2024-03-22T09:31:40;15.90;99.90
7648;DHT22;3866;48.020;11.720;2024-03-22T09:34:07;15.90;99.90
7648;DHT22;3866;48.020;11.720;2024-03-22T09:36:34;15.80;99.90
7648;DHT22;3866;48.020;11.720;2024-03-22T09:39:01;15.50;99.90
7648;DHT22;3866;48.020;11.720;2024-03-22T09:41:28;16.10;99.90
7648;DHT22;3866;48.020;11.720;2024-03-22T09:43:58;16.70;99.90
7648;DHT22;3866;48.020;11.720;2024-03-22T09:46:26;16.40;99.90
7648;DHT22;3866;48.020;11.720;2024-03-22T09:48:52;16.40;99.90
7648;DHT22;3866;48.020;11.720;2024-03-22T09:51:22;15.50;99.90
7648;DHT22;3866;48.020;11.720;2024-03-22T09:53:49;15.10;99.90
7648;DHT22;3866;48.020;11.720;2024-03-22T09:56:18;15.20;99.90
7648;DHT22;3866;48.020;11.720;2024-03-22T09:58:45;15.20;99.90
7648;DHT22;3866;48.020;11.720;2024-03-22T10:01:13;15.20;99.90
7648;DHT22;3866;48.020;11.720;2024-03-22T10:03:39;15.30;99.90
7648;DHT22;3866;48.020;11.720;2024-03-22T10:06:06;15.00;99.90
7648;DHT22;3866;48.020;11.720;2024-03-22T10:08:33;15.70;99.90
7648;DHT22;3866;48.020;11.720;2024-03-22T10:11:02;15.60;99.90
7648;DHT22;3866;48.020;11.720;2024-03-22T10:13:28;16.00;99.90
7648;DHT22;3866;48.020;11.720;2024-03-22T10:15:56;15.70;99.90
7648;DHT22;3866;48.020;11.720;2024-03-22T10:18:22;15.80;99.90
7648;DHT22;3866;48.020;11.720;2024-03-22T10:20:59;15.40;99.90
7648;DHT22;3866;48.020;11.720;2024-03-22T10:23:25;15.70;99.90
7648;DHT22;3866;48.020;11.720;2024-03-22T10:25:54;15.60;99.90
7648;DHT22;3866;48.020;11.720;2024-03-22T10:28:19;16.10;99.90
7648;DHT22;3866;48.020;11.720;2024-03-22T10:30:47;16.80;99.90
7648;DHT22;3866;48.020;11.720;2024-03-22T10:33:15;17.40;99.90
7648;DHT22;3866;48.020;11.720;2024-03-22T10:35:43;17.40;99.90
7648;DHT22;3866;48.020;11.720;2024-03-22T10:38:10;17.30;99.90
7648;DHT22;3866;48.020;11.720;2024-03-22T10:40:39;16.90;99.90
7648;DHT22;3866;48.020;11.720;2024-03-22T10:43:07;17.40;99.90
7648;DHT22;3866;48.020;11.720;2024-03-22T10:45:35;17.20;99.90
7648;DHT22;3866;48.020;11.720;2024-03-22T10:48:08;17.90;99.90
7648;DHT22;3866;48.020;11.720;2024-03-22T10:50:35;17.80;99.90
7648;DHT22;3866;48.020;11.720;2024-03-22T10:53:07;17.60;99.90
7648;DHT22;3866;48.020;11.720;2024-03-22T10:55:35;18.00;99.90
7648;DHT22;3866;48.020;11.720;2024-03-22T10:58:03;18.80;99.90
7648;DHT22;3866;48.020;11.720;2024-03-22T11:00:32;19.00;99.90
7648;DHT22;3866;48.020;11.720;2024-03-22T11:02:59;18.80;99.90
7648;DHT22;3866;48.020;11.720;2024-03-22T11:05:26;18.30;99.90
7648;DHT22;3866;48.020;11.720;2024-03-22T11:07:59;18.30;99.90
7648;DHT22;3866;48.020;11.720;2024-03-22T11:10:28;18.40;99.90
7648;DHT22;3866;48.020;11.720;2024-03-22T11:13:00;18.50;99.90
7648;DHT22;3866;48.020;11.720;2024-03-22T11:15:28;19.10;99.90
7648;DHT22;3866;48.020;11.720;2024-03-22T11:17:56;19.20;99.90
7648;DHT22;3866;48.020;11.720;2024-03-22T11:20:22;19.80;99.90
7648;DHT22;3866;48.020;11.720;2024-03-22T11:22:50;20.40;99.90
7648;DHT22;3866;48.020;11.720;2024-03-22T11:25:16;21.10;99.90
7648;DHT22;3866;48.020;11.720;2024-03-22T11:27:43;21.10;99.90
7648;DHT22;3866;48.020;11.720;2024-03-22T11:30:09;20.60;99.90
7648;DHT22;3866;48.020;11.720;2024-03-22T11:32:36;20.60;99.90
7648;DHT22;3866;48.020;11.720;2024-03-22T11:35:09;20.40;99.90
7648;DHT22;3866;48.020;11.720;2024-03-22T11:37:37;20.40;99.90
7648;DHT22;3866;48.020;11.720;2024-03-22T11:40:04;20.00;99.90
7648;DHT22;3866;48.020;11.720;2024-03-22T11:42:32;19.40;99.90
7648;DHT22;3866;48.020;11.720;2024-03-22T11:44:58;19.30;99.90
7648;DHT22;3866;48.020;11.720;2024-03-22T11:47:26;19.40;99.90
7648;DHT22;3866;48.020;11.720;2024-03-22T11:49:52;19.30;99.90
7648;DHT22;3866;48.020;11.720;2024-03-22T11:52:24;19.90;99.90
7648;DHT22;3866;48.020;11.720;2024-03-22T11:54:50;19.70;99.90
7648;DHT22;3866;48.020;11.720;2024-03-22T11:57:18;19.10;99.90
7648;DHT22;3866;48.020;11.720;2024-03-22T11:59:44;19.30;99.90
7648;DHT22;3866;48.020;11.720;2024-03-22T12:02:11;19.70;99.90
7648;DHT22;3866;48.020;11.720;2024-03-22T12:04:41;19.10;99.90
7648;DHT22;3866;48.020;11.720;2024-03-22T12:07:10;19.80;99.90
7648;DHT22;3866;48.020;11.720;2024-03-22T12:09:37;20.20;99.90
7648;DHT22;3866;48.020;11.720;2024-03-22T12:12:06;20.40;99.90
7648;DHT22;3866;48.020;11.720;2024-03-22T12:14:33;20.30;99.90
7648;DHT22;3866;48.020;11.720;2024-03-22T12:17:01;19.80;99.90
7648;DHT22;3866;48.020;11.720;2024-03-22T12:19:27;19.60;99.90
7648;DHT22;3866;48.020;11.720;2024-03-22T12:21:54;20.30;99.90
7648;DHT22;3866;48.020;11.720;2024-03-22T12:24:20;19.70;99.90
7648;DHT22;3866;48.020;11.720;2024-03-22T12:26:49;19.20;99.90
7648;DHT22;3866;48.020;11.720;2024-03-22T12:29:15;19.70;99.90
7648;DHT22;3866;48.020;11.720;2024-03-22T12:31:42;19.50;99.90
7648;DHT22;3866;48.020;11.720;2024-03-22T12:34:08;19.40;99.90
7648;DHT22;3866;48.020;11.720;2024-03-22T12:36:35;19.20;99.90
7648;DHT22;3866;48.020;11.720;2024-03-22T12:39:02;19.00;99.90
7648;DHT22;3866;48.020;11.720;2024-03-22T12:41:30;19.70;99.90
7648;DHT22;3866;48.020;11.720;2024-03-22T12:43:58;20.40;99.90
7648;DHT22;3866;48.020;11.720;2024-03-22T12:46:25;18.90;99.90
7648;DHT22;3866;48.020;11.720;2024-03-22T12:48:51;19.30;99.90
7648;DHT22;3866;48.020;11.720;2024-03-22T12:51:18;19.40;99.90
7648;DHT22;3866;48.020;11.720;2024-03-22T12:53:44;19.50;99.90
7648;DHT22;3866;48.020;11.720;2024-03-22T12:56:12;19.00;99.90
7648;DHT22;3866;48.020;11.720;2024-03-22T12:58:38;19.40;99.90
7648;DHT22;3866;48.020;11.720;2024-03-22T13:01:07;19.10;99.90
7648;DHT22;3866;48.020;11.720;2024-03-22T13:03:33;19.00;99.90
7648;DHT22;3866;48.020;11.720;2024-03-22T13:06:00;18.90;99.90
7648;DHT22;3866;48.020;11.720;2024-03-22T13:08:26;19.20;99.90
7648;DHT22;3866;48.020;11.720;2024-03-22T13:10:53;19.20;99.90
7648;DHT22;3866;48.020;11.720;2024-03-22T13:13:19;19.00;99.90
7648;DHT22;3866;48.020;11.720;2024-03-22T13:15:46;19.10;99.90
7648;DHT22;3866;48.020;11.720;2024-03-22T13:18:14;19.40;99.90
7648;DHT22;3866;48.020;11.720;2024-03-22T13:20:41;19.80;99.90
7648;DHT22;3866;48.020;11.720;2024-03-22T13:23:07;19.90;99.90
7648;DHT22;3866;48.020;11.720;2024-03-22T13:25:35;19.50;99.90
7648;DHT22;3866;48.020;11.720;2024-03-22T13:28:02;19.20;99.90
7648;DHT22;3866;48.020;11.720;2024-03-22T13:30:30;19.30;99.90
7648;DHT22;3866;48.020;11.720;2024-03-22T13:32:56;19.40;99.90
7648;DHT22;3866;48.020;11.720;2024-03-22T13:35:26;19.90;99.90
7648;DHT22;3866;48.020;11.720;2024-03-22T13:37:52;19.90;99.90
7648;DHT22;3866;48.020;11.720;2024-03-22T13:40:19;20.50;99.90
7648;DHT22;3866;48.020;11.720;2024-03-22T13:42:45;20.40;99.90
7648;DHT22;3866;48.020;11.720;2024-03-22T13:45:12;20.30;99.90
7648;DHT22;3866;48.020;11.720;2024-03-22T13:47:38;20.10;99.90
7648;DHT22;3866;48.020;11.720;2024-03-22T13:50:06;19.70;99.90
7648;DHT22;3866;48.020;11.720;2024-03-22T13:52:35;19.60;99.90
7648;DHT22;3866;48.020;11.720;2024-03-22T13:55:02;19.30;99.90
7648;DHT22;3866;48.020;11.720;2024-03-22T13:57:28;18.90;99.90
7648;DHT22;3866;48.020;11.720;2024-03-22T13:59:55;18.90;99.90
7648;DHT22;3866;48.020;11.720;2024-03-22T14:02:21;19.00;99.90
7648;DHT22;3866;48.020;11.720;2024-03-22T14:04:48;19.10;99.90
7648;DHT22;3866;48.020;11.720;2024-03-22T14:07:14;18.70;99.90
7648;DHT22;3866;48.020;11.720;2024-03-22T14:09:43;19.00;99.90
7648;DHT22;3866;48.020;11.720;2024-03-22T14:12:09;19.30;99.90
7648;DHT22;3866;48.020;11.720;2024-03-22T14:14:35;19.20;99.90
7648;DHT22;3866;48.020;11.720;2024-03-22T14:17:01;18.90;99.90
7648;DHT22;3866;48.020;11.720;2024-03-22T14:19:29;19.10;99.90
7648;DHT22;3866;48.020;11.720;2024-03-22T14:21:55;19.40;99.90
7648;DHT22;3866;48.020;11.720;2024-03-22T14:24:21;19.20;99.90
7648;DHT22;3866;48.020;11.720;2024-03-22T14:26:49;18.90;99.90
7648;DHT22;3866;48.020;11.720;2024-03-22T14:29:16;18.70;99.90
7648;DHT22;3866;48.020;11.720;2024-03-22T14:31:41;18.90;99.90
7648;DHT22;3866;48.020;11.720;2024-03-22T14:34:09;18.90;99.90
7648;DHT22;3866;48.020;11.720;2024-03-22T14:36:35;19.10;99.90
7648;DHT22;3866;48.020;11.720;2024-03-22T14:39:03;19.20;99.90
7648;DHT22;3866;48.020;11.720;2024-03-22T14:41:31;19.10;99.90
7648;DHT22;3866;48.020;11.720;2024-03-22T14:43:59;19.00;99.90
7648;DHT22;3866;48.020;11.720;2024-03-22T14:46:25;19.00;99.90
7648;DHT22;3866;48.020;11.720;2024-03-22T14:48:54;18.90;99.90
7648;DHT22;3866;48.020;11.720;2024-03-22T14:51:20;18.90;99.90
7648;DHT22;3866;48.020;11.720;2024-03-22T14:53:47;18.70;99.90
7648;DHT22;3866;48.020;11.720;2024-03-22T14:56:13;18.80;99.90
7648;DHT22;3866;48.020;11.720;2024-03-22T14:58:40;18.70;99.90
7648;DHT22;3866;48.020;11.720;2024-03-22T15:01:07;18.70;99.90
7648;DHT22;3866;48.020;11.720;2024-03-22T15:03:35;18.50;99.90
7648;DHT22;3866;48.020;11.720;2024-03-22T15:06:01;18.30;99.90
7648;DHT22;3866;48.020;11.720;2024-03-22T15:08:28;18.40;99.90
7648;DHT22;3866;48.020;11.720;2024-03-22T15:10:55;18.60;99.90
7648;DHT22;3866;48.020;11.720;2024-03-22T15:13:22;18.50;99.90
7648;DHT22;3866;48.020;11.720;2024-03-22T15:15:52;18.40;99.90
7648;DHT22;3866;48.020;11.720;2024-03-22T15:18:21;18.50;99.90
7648;DHT22;3866;48.020;11.720;2024-03-22T15:20:47;18.70;99.90
7648;DHT22;3866;48.020;11.720;2024-03-22T15:23:15;18.70;99.90
7648;DHT22;3866;48.020;11.720;2024-03-22T15:25:40;18.40;99.90
7648;DHT22;3866;48.020;11.720;2024-03-22T15:28:08;18.70;99.90
7648;DHT22;3866;48.020;11.720;2024-03-22T15:30:34;18.40;99.90
7648;DHT22;3866;48.020;11.720;2024-03-22T15:33:01;18.10;99.90
7648;DHT22;3866;48.020;11.720;2024-03-22T15:35:30;17.90;99.90
7648;DHT22;3866;48.020;11.720;2024-03-22T15:37:57;17.60;99.90
7648;DHT22;3866;48.020;11.720;2024-03-22T15:40:23;17.60;99.90
7648;DHT22;3866;48.020;11.720;2024-03-22T15:42:50;17.60;99.90
7648;DHT22;3866;48.020;11.720;2024-03-22T15:45:17;17.60;99.90
7648;DHT22;3866;48.020;11.720;2024-03-22T15:47:44;17.60;99.90
7648;DHT22;3866;48.020;11.720;2024-03-22T15:50:10;17.50;99.90